sensor_id;sensor_type;location;lat;lon;timestamp;pressure;altitude;pressure_sealevel;temperature
48854;BMP280;34673;52.808;17.856;2023-12-20T00:01:07;99516.31;;;6.17
48854;BMP280;34673;52.808;17.856;2023-12-20T00:03:34;99517.19;;;6.19
48854;BMP280;34673;52.808;17.856;2023-12-20T00:06:09;99504.34;;;6.15
48854;BMP280;34673;52.808;17.856;2023-12-20T00:08:36;99507.75;;;6.18
48854;BMP280;34673;52.808;17.856;2023-12-20T00:11:04;99512.06;;;6.16
48854;BMP280;34673;52.808;17.856;2023-12-20T00:13:31;99517.19;;;6.16
48854;BMP280;34673;52.808;17.856;2023-12-20T00:15:58;99499.22;;;6.13
48854;BMP280;34673;52.808;17.856;2023-12-20T00:18:25;99510.31;;;6.18
48854;BMP280;34673;52.808;17.856;2023-12-20T00:20:53;99510.31;;;6.18
48854;BMP280;34673;52.808;17.856;2023-12-20T00:23:20;99507.75;;;6.20
48854;BMP280;34673;52.808;17.856;2023-12-20T00:25:47;99506.03;;;6.20
48854;BMP280;34673;52.808;17.856;2023-12-20T00:28:14;99510.31;;;6.18
48854;BMP280;34673;52.808;17.856;2023-12-20T00:30:41;99501.78;;;6.19
48854;BMP280;34673;52.808;17.856;2023-12-20T00:33:09;99500.03;;;6.21
48854;BMP280;34673;52.808;17.856;2023-12-20T00:35:36;99498.34;;;6.20
48854;BMP280;34673;52.808;17.856;2023-12-20T00:38:03;99494.91;;;6.21
48854;BMP280;34673;52.808;17.856;2023-12-20T00:40:32;99499.19;;;6.22
48854;BMP280;34673;52.808;17.856;2023-12-20T00:43:00;99500.91;;;6.20
48854;BMP280;34673;52.808;17.856;2023-12-20T00:45:27;99488.09;;;6.14
48854;BMP280;34673;52.808;17.856;2023-12-20T00:47:54;99496.63;;;6.22
48854;BMP280;34673;52.808;17.856;2023-12-20T00:50:21;99488.06;;;6.17
48854;BMP280;34673;52.808;17.856;2023-12-20T00:52:51;99486.34;;;6.22
48854;BMP280;34673;52.808;17.856;2023-12-20T00:55:19;99488.06;;;6.20
48854;BMP280;34673;52.808;17.856;2023-12-20T00:57:46;99489.75;;;6.21
48854;BMP280;34673;52.808;17.856;2023-12-20T01:00:14;99492.34;;;6.18
48854;BMP280;34673;52.808;17.856;2023-12-20T01:02:42;99492.34;;;6.20
48854;BMP280;34673;52.808;17.856;2023-12-20T01:05:09;99502.59;;;6.23
48854;BMP280;34673;52.808;17.856;2023-12-20T01:07:36;99489.78;;;6.25
48854;BMP280;34673;52.808;17.856;2023-12-20T01:10:04;99491.47;;;6.24
48854;BMP280;34673;52.808;17.856;2023-12-20T01:12:31;99485.47;;;6.24
48854;BMP280;34673;52.808;17.856;2023-12-20T01:14:58;99488.03;;;6.24
48854;BMP280;34673;52.808;17.856;2023-12-20T01:17:25;99482.91;;;6.24
48854;BMP280;34673;52.808;17.856;2023-12-20T01:19:53;99482.94;;;6.20
48854;BMP280;34673;52.808;17.856;2023-12-20T01:22:20;99479.50;;;6.25
48854;BMP280;34673;52.808;17.856;2023-12-20T01:24:47;99477.78;;;6.20
48854;BMP280;34673;52.808;17.856;2023-12-20T01:27:14;99479.50;;;6.23
48854;BMP280;34673;52.808;17.856;2023-12-20T01:29:42;99467.50;;;6.24
48854;BMP280;34673;52.808;17.856;2023-12-20T01:32:09;99464.06;;;6.21
48854;BMP280;34673;52.808;17.856;2023-12-20T01:34:36;99464.94;;;6.24
48854;BMP280;34673;52.808;17.856;2023-12-20T01:37:03;99464.09;;;6.23
48854;BMP280;34673;52.808;17.856;2023-12-20T01:39:31;99453.81;;;6.18
48854;BMP280;34673;52.808;17.856;2023-12-20T01:41:58;99453.81;;;6.25
48854;BMP280;34673;52.808;17.856;2023-12-20T01:44:25;99451.25;;;6.25
48854;BMP280;34673;52.808;17.856;2023-12-20T01:46:54;99443.53;;;6.21
48854;BMP280;34673;52.808;17.856;2023-12-20T01:49:21;99452.13;;;6.20
48854;BMP280;34673;52.808;17.856;2023-12-20T01:51:49;99440.16;;;6.19
48854;BMP280;34673;52.808;17.856;2023-12-20T01:54:17;99444.41;;;6.22
48854;BMP280;34673;52.808;17.856;2023-12-20T01:56:46;99436.72;;;6.20
48854;BMP280;34673;52.808;17.856;2023-12-20T01:59:13;99450.38;;;6.26
48854;BMP280;34673;52.808;17.856;2023-12-20T02:01:40;99443.53;;;6.25
48854;BMP280;34673;52.808;17.856;2023-12-20T02:04:08;99448.69;;;6.25
48854;BMP280;34673;52.808;17.856;2023-12-20T02:06:36;99438.41;;;6.25
48854;BMP280;34673;52.808;17.856;2023-12-20T02:09:07;99428.97;;;6.24
48854;BMP280;34673;52.808;17.856;2023-12-20T02:11:34;99428.97;;;6.24
48854;BMP280;34673;52.808;17.856;2023-12-20T02:14:03;99419.59;;;6.22
48854;BMP280;34673;52.808;17.856;2023-12-20T02:16:30;99415.28;;;6.21
48854;BMP280;34673;52.808;17.856;2023-12-20T02:18:57;99423.88;;;6.22
48854;BMP280;34673;52.808;17.856;2023-12-20T02:21:25;99421.28;;;6.20
48854;BMP280;34673;52.808;17.856;2023-12-20T02:23:52;99419.59;;;6.22
48854;BMP280;34673;52.808;17.856;2023-12-20T02:26:19;99420.41;;;6.21
48854;BMP280;34673;52.808;17.856;2023-12-20T02:28:47;99424.75;;;6.19
48854;BMP280;34673;52.808;17.856;2023-12-20T02:31:14;99417.03;;;6.19
48854;BMP280;34673;52.808;17.856;2023-12-20T02:33:41;99413.59;;;6.20
48854;BMP280;34673;52.808;17.856;2023-12-20T02:36:09;99406.78;;;6.16
48854;BMP280;34673;52.808;17.856;2023-12-20T02:38:36;99400.78;;;6.17
48854;BMP280;34673;52.808;17.856;2023-12-20T02:41:03;99412.75;;;6.18
48854;BMP280;34673;52.808;17.856;2023-12-20T02:43:30;99414.47;;;6.18
48854;BMP280;34673;52.808;17.856;2023-12-20T02:45:57;99417.88;;;6.18
48854;BMP280;34673;52.808;17.856;2023-12-20T02:48:24;99407.59;;;6.18
48854;BMP280;34673;52.808;17.856;2023-12-20T02:50:52;99400.78;;;6.17
48854;BMP280;34673;52.808;17.856;2023-12-20T02:53:19;99397.34;;;6.15
48854;BMP280;34673;52.808;17.856;2023-12-20T02:55:46;99403.34;;;6.17
48854;BMP280;34673;52.808;17.856;2023-12-20T02:58:14;99405.03;;;6.18
48854;BMP280;34673;52.808;17.856;2023-12-20T03:00:41;99404.22;;;6.16
48854;BMP280;34673;52.808;17.856;2023-12-20T03:03:08;99399.09;;;6.10
48854;BMP280;34673;52.808;17.856;2023-12-20T03:05:35;99376.91;;;6.00
48854;BMP280;34673;52.808;17.856;2023-12-20T03:08:02;99397.38;;;6.12
48854;BMP280;34673;52.808;17.856;2023-12-20T03:10:29;99393.94;;;6.13
48854;BMP280;34673;52.808;17.856;2023-12-20T03:12:57;99405.91;;;6.16
48854;BMP280;34673;52.808;17.856;2023-12-20T03:15:24;99400.78;;;6.16
48854;BMP280;34673;52.808;17.856;2023-12-20T03:17:51;99399.94;;;6.17
48854;BMP280;34673;52.808;17.856;2023-12-20T03:20:19;99395.63;;;6.17
48854;BMP280;34673;52.808;17.856;2023-12-20T03:22:46;99399.09;;;6.16
48854;BMP280;34673;52.808;17.856;2023-12-20T03:25:13;99399.09;;;6.10
48854;BMP280;34673;52.808;17.856;2023-12-20T03:27:40;99400.78;;;6.17
48854;BMP280;34673;52.808;17.856;2023-12-20T03:30:08;99383.66;;;6.13
48854;BMP280;34673;52.808;17.856;2023-12-20T03:32:37;99393.91;;;6.19
48854;BMP280;34673;52.808;17.856;2023-12-20T03:35:05;99387.06;;;6.18
48854;BMP280;34673;52.808;17.856;2023-12-20T03:37:32;99392.19;;;6.18
48854;BMP280;34673;52.808;17.856;2023-12-20T03:40:00;99392.19;;;6.18
48854;BMP280;34673;52.808;17.856;2023-12-20T03:42:27;99383.66;;;6.13
48854;BMP280;34673;52.808;17.856;2023-12-20T03:44:55;99395.63;;;6.17
48854;BMP280;34673;52.808;17.856;2023-12-20T03:47:22;99388.81;;;6.16
48854;BMP280;34673;52.808;17.856;2023-12-20T03:49:49;99387.09;;;6.15
48854;BMP280;34673;52.808;17.856;2023-12-20T03:52:16;99390.53;;;6.14
48854;BMP280;34673;52.808;17.856;2023-12-20T03:54:44;99383.66;;;6.13
48854;BMP280;34673;52.808;17.856;2023-12-20T03:57:11;99395.63;;;6.17
48854;BMP280;34673;52.808;17.856;2023-12-20T03:59:38;99376.88;;;6.06
48854;BMP280;34673;52.808;17.856;2023-12-20T04:02:06;99387.06;;;6.18
48854;BMP280;34673;52.808;17.856;2023-12-20T04:04:33;99385.38;;;6.17
48854;BMP280;34673;52.808;17.856;2023-12-20T04:07:00;99375.16;;;6.11
48854;BMP280;34673;52.808;17.856;2023-12-20T04:09:28;99387.09;;;6.15
48854;BMP280;34673;52.808;17.856;2023-12-20T04:11:55;99380.25;;;6.14
48854;BMP280;34673;52.808;17.856;2023-12-20T04:14:22;99372.56;;;6.11
48854;BMP280;34673;52.808;17.856;2023-12-20T04:16:49;99375.97;;;6.16
48854;BMP280;34673;52.808;17.856;2023-12-20T04:19:16;99381.94;;;6.17
48854;BMP280;34673;52.808;17.856;2023-12-20T04:21:44;99375.09;;;6.17
48854;BMP280;34673;52.808;17.856;2023-12-20T04:24:11;99374.25;;;6.15
48854;BMP280;34673;52.808;17.856;2023-12-20T04:26:38;99375.16;;;6.11
48854;BMP280;34673;52.808;17.856;2023-12-20T04:29:05;99373.41;;;6.13
48854;BMP280;34673;52.808;17.856;2023-12-20T04:31:32;99369.13;;;6.12
48854;BMP280;34673;52.808;17.856;2023-12-20T04:34:00;99376.00;;;6.12
48854;BMP280;34673;52.808;17.856;2023-12-20T04:36:27;99381.13;;;6.10
48854;BMP280;34673;52.808;17.856;2023-12-20T04:38:57;99385.41;;;6.11
48854;BMP280;34673;52.808;17.856;2023-12-20T04:41:24;99381.97;;;6.12
48854;BMP280;34673;52.808;17.856;2023-12-20T04:43:51;99372.59;;;6.08
48854;BMP280;34673;52.808;17.856;2023-12-20T04:46:18;99373.44;;;6.07
48854;BMP280;34673;52.808;17.856;2023-12-20T04:48:46;99373.44;;;6.07
48854;BMP280;34673;52.808;17.856;2023-12-20T04:51:13;99375.97;;;6.10
48854;BMP280;34673;52.808;17.856;2023-12-20T04:53:40;99378.53;;;6.13
48854;BMP280;34673;52.808;17.856;2023-12-20T04:56:07;99380.31;;;6.08
48854;BMP280;34673;52.808;17.856;2023-12-20T04:58:34;99381.97;;;6.12
48854;BMP280;34673;52.808;17.856;2023-12-20T05:01:02;99374.31;;;6.05
48854;BMP280;34673;52.808;17.856;2023-12-20T05:03:30;99390.53;;;6.14
48854;BMP280;34673;52.808;17.856;2023-12-20T05:05:57;99387.16;;;6.06
48854;BMP280;34673;52.808;17.856;2023-12-20T05:08:25;99373.41;;;6.10
48854;BMP280;34673;52.808;17.856;2023-12-20T05:10:54;99393.06;;;6.17
48854;BMP280;34673;52.808;17.856;2023-12-20T05:13:21;99392.22;;;6.15
48854;BMP280;34673;52.808;17.856;2023-12-20T05:15:52;99399.09;;;6.16
48854;BMP280;34673;52.808;17.856;2023-12-20T05:18:20;99386.22;;;6.13
48854;BMP280;34673;52.808;17.856;2023-12-20T05:20:48;99391.38;;;6.13
48854;BMP280;34673;52.808;17.856;2023-12-20T05:23:15;99390.53;;;6.11
48854;BMP280;34673;52.808;17.856;2023-12-20T05:25:42;99385.41;;;6.11
48854;BMP280;34673;52.808;17.856;2023-12-20T05:28:09;99386.25;;;6.12
48854;BMP280;34673;52.808;17.856;2023-12-20T05:30:37;99371.75;;;6.06
48854;BMP280;34673;52.808;17.856;2023-12-20T05:33:04;99376.88;;;6.06
48854;BMP280;34673;52.808;17.856;2023-12-20T05:35:31;99378.59;;;6.06
48854;BMP280;34673;52.808;17.856;2023-12-20T05:37:58;99383.75;;;6.01
48854;BMP280;34673;52.808;17.856;2023-12-20T05:40:26;99380.28;;;6.05
48854;BMP280;34673;52.808;17.856;2023-12-20T05:42:53;99376.88;;;6.06
48854;BMP280;34673;52.808;17.856;2023-12-20T05:45:20;99367.47;;;6.04
48854;BMP280;34673;52.808;17.856;2023-12-20T05:47:48;99364.94;;;5.99
48854;BMP280;34673;52.808;17.856;2023-12-20T05:50:15;99367.53;;;5.97
48854;BMP280;34673;52.808;17.856;2023-12-20T05:52:42;99367.50;;;5.96
48854;BMP280;34673;52.808;17.856;2023-12-20T05:55:09;99376.91;;;5.97
48854;BMP280;34673;52.808;17.856;2023-12-20T05:57:36;99378.66;;;5.95
48854;BMP280;34673;52.808;17.856;2023-12-20T06:00:04;99363.22;;;5.89
48854;BMP280;34673;52.808;17.856;2023-12-20T06:02:37;99358.09;;;5.92
48854;BMP280;34673;52.808;17.856;2023-12-20T06:05:05;99363.25;;;5.92
48854;BMP280;34673;52.808;17.856;2023-12-20T06:07:32;99364.94;;;5.93
48854;BMP280;34673;52.808;17.856;2023-12-20T06:09:59;99366.66;;;5.88
48854;BMP280;34673;52.808;17.856;2023-12-20T06:12:27;99363.22;;;5.89
48854;BMP280;34673;52.808;17.856;2023-12-20T06:14:55;99363.28;;;5.84
48854;BMP280;34673;52.808;17.856;2023-12-20T06:17:24;99351.34;;;5.69
48854;BMP280;34673;52.808;17.856;2023-12-20T06:19:51;99379.50;;;5.83
48854;BMP280;34673;52.808;17.856;2023-12-20T06:22:18;99373.53;;;5.83
48854;BMP280;34673;52.808;17.856;2023-12-20T06:24:46;99371.84;;;5.82
48854;BMP280;34673;52.808;17.856;2023-12-20T06:27:13;99381.25;;;5.76
48854;BMP280;34673;52.808;17.856;2023-12-20T06:29:40;99377.00;;;5.75
48854;BMP280;34673;52.808;17.856;2023-12-20T06:32:08;99387.28;;;5.75
48854;BMP280;34673;52.808;17.856;2023-12-20T06:34:36;99374.47;;;5.66
48854;BMP280;34673;52.808;17.856;2023-12-20T06:37:05;99383.88;;;5.70
48854;BMP280;34673;52.808;17.856;2023-12-20T06:39:32;99385.53;;;5.74
48854;BMP280;34673;52.808;17.856;2023-12-20T06:42:00;99385.53;;;5.74
48854;BMP280;34673;52.808;17.856;2023-12-20T06:44:28;99371.88;;;5.75
48854;BMP280;34673;52.808;17.856;2023-12-20T06:46:55;99373.59;;;5.73
48854;BMP280;34673;52.808;17.856;2023-12-20T06:49:22;99363.31;;;5.73
48854;BMP280;34673;52.808;17.856;2023-12-20T06:51:50;99370.19;;;5.68
48854;BMP280;34673;52.808;17.856;2023-12-20T06:54:17;99384.72;;;5.71
48854;BMP280;34673;52.808;17.856;2023-12-20T06:56:44;99377.03;;;5.68
48854;BMP280;34673;52.808;17.856;2023-12-20T06:59:11;99375.34;;;5.65
48854;BMP280;34673;52.808;17.856;2023-12-20T07:01:39;99376.22;;;5.60
48854;BMP280;34673;52.808;17.856;2023-12-20T07:04:06;99382.19;;;5.60
48854;BMP280;34673;52.808;17.856;2023-12-20T07:06:33;99392.44;;;5.60
48854;BMP280;34673;52.808;17.856;2023-12-20T07:09:01;99395.03;;;5.57
48854;BMP280;34673;52.808;17.856;2023-12-20T07:11:28;99389.03;;;5.55
48854;BMP280;34673;52.808;17.856;2023-12-20T07:13:55;99382.22;;;5.48
48854;BMP280;34673;52.808;17.856;2023-12-20T07:16:22;99389.06;;;5.49
48854;BMP280;34673;52.808;17.856;2023-12-20T07:18:50;99387.38;;;5.42
48854;BMP280;34673;52.808;17.856;2023-12-20T07:21:17;99394.19;;;5.43
48854;BMP280;34673;52.808;17.856;2023-12-20T07:23:44;99401.88;;;5.43
48854;BMP280;34673;52.808;17.856;2023-12-20T07:26:11;99409.59;;;5.43
48854;BMP280;34673;52.808;17.856;2023-12-20T07:28:38;99403.59;;;5.42
48854;BMP280;34673;52.808;17.856;2023-12-20T07:31:06;99401.06;;;5.41
48854;BMP280;34673;52.808;17.856;2023-12-20T07:33:33;99404.47;;;5.40
48854;BMP280;34673;52.808;17.856;2023-12-20T07:36:06;99390.78;;;5.34
48854;BMP280;34673;52.808;17.856;2023-12-20T07:38:33;99400.22;;;5.34
48854;BMP280;34673;52.808;17.856;2023-12-20T07:41:00;99402.78;;;5.36
48854;BMP280;34673;52.808;17.856;2023-12-20T07:43:28;99402.78;;;5.32
48854;BMP280;34673;52.808;17.856;2023-12-20T07:45:55;99402.78;;;5.32
48854;BMP280;34673;52.808;17.856;2023-12-20T07:48:22;99413.03;;;5.32
48854;BMP280;34673;52.808;17.856;2023-12-20T07:50:49;99419.88;;;5.37
48854;BMP280;34673;52.808;17.856;2023-12-20T07:53:17;99408.78;;;5.33
48854;BMP280;34673;52.808;17.856;2023-12-20T07:55:44;99413.03;;;5.39
48854;BMP280;34673;52.808;17.856;2023-12-20T07:58:11;99412.19;;;5.38
48854;BMP280;34673;52.808;17.856;2023-12-20T08:00:38;99413.03;;;5.36
48854;BMP280;34673;52.808;17.856;2023-12-20T08:03:06;99416.44;;;5.41
48854;BMP280;34673;52.808;17.856;2023-12-20T08:05:33;99418.16;;;5.42
48854;BMP280;34673;52.808;17.856;2023-12-20T08:08:01;99421.56;;;5.41
48854;BMP280;34673;52.808;17.856;2023-12-20T08:10:28;99404.44;;;5.43
48854;BMP280;34673;52.808;17.856;2023-12-20T08:12:57;99401.06;;;5.41
48854;BMP280;34673;52.808;17.856;2023-12-20T08:15:24;99396.78;;;5.37
48854;BMP280;34673;52.808;17.856;2023-12-20T08:17:51;99402.78;;;5.39
48854;BMP280;34673;52.808;17.856;2023-12-20T08:20:19;99403.63;;;5.38
48854;BMP280;34673;52.808;17.856;2023-12-20T08:22:55;99410.47;;;5.36
48854;BMP280;34673;52.808;17.856;2023-12-20T08:25:22;99410.47;;;5.36
48854;BMP280;34673;52.808;17.856;2023-12-20T08:27:50;99400.22;;;5.34
48854;BMP280;34673;52.808;17.856;2023-12-20T08:30:17;99404.47;;;5.37
48854;BMP280;34673;52.808;17.856;2023-12-20T08:32:48;99395.94;;;5.31
48854;BMP280;34673;52.808;17.856;2023-12-20T08:35:15;99397.69;;;5.29
48854;BMP280;34673;52.808;17.856;2023-12-20T08:37:42;99396.81;;;5.30
48854;BMP280;34673;52.808;17.856;2023-12-20T08:40:10;99400.22;;;5.32
48854;BMP280;34673;52.808;17.856;2023-12-20T08:42:37;99401.06;;;5.31
48854;BMP280;34673;52.808;17.856;2023-12-20T08:45:04;99401.06;;;5.31
48854;BMP280;34673;52.808;17.856;2023-12-20T08:47:32;99391.69;;;5.32
48854;BMP280;34673;52.808;17.856;2023-12-20T08:49:59;99395.94;;;5.31
48854;BMP280;34673;52.808;17.856;2023-12-20T08:52:27;99392.53;;;5.26
48854;BMP280;34673;52.808;17.856;2023-12-20T08:54:56;99389.16;;;5.21
48854;BMP280;34673;52.808;17.856;2023-12-20T08:57:23;99398.53;;;5.27
48854;BMP280;34673;52.808;17.856;2023-12-20T08:59:51;99390.84;;;5.25
48854;BMP280;34673;52.808;17.856;2023-12-20T09:02:18;99404.50;;;5.27
48854;BMP280;34673;52.808;17.856;2023-12-20T09:04:45;99394.25;;;5.24
48854;BMP280;34673;52.808;17.856;2023-12-20T09:07:25;99399.41;;;5.21
48854;BMP280;34673;52.808;17.856;2023-12-20T09:09:52;99389.13;;;5.18
48854;BMP280;34673;52.808;17.856;2023-12-20T09:12:20;99391.69;;;5.20
48854;BMP280;34673;52.808;17.856;2023-12-20T09:14:48;99390.84;;;5.19
48854;BMP280;34673;52.808;17.856;2023-12-20T09:17:17;99384.88;;;5.13
48854;BMP280;34673;52.808;17.856;2023-12-20T09:19:44;99388.28;;;5.16
48854;BMP280;34673;52.808;17.856;2023-12-20T09:22:12;99382.31;;;5.17
48854;BMP280;34673;52.808;17.856;2023-12-20T09:24:39;99379.72;;;5.16
48854;BMP280;34673;52.808;17.856;2023-12-20T09:27:07;99383.13;;;5.21
48854;BMP280;34673;52.808;17.856;2023-12-20T09:29:34;99375.47;;;5.19
48854;BMP280;34673;52.808;17.856;2023-12-20T09:32:01;99371.19;;;5.18
48854;BMP280;34673;52.808;17.856;2023-12-20T09:34:28;99372.91;;;5.22
48854;BMP280;34673;52.808;17.856;2023-12-20T09:36:56;99376.28;;;5.29
48854;BMP280;34673;52.808;17.856;2023-12-20T09:39:24;99370.31;;;5.28
48854;BMP280;34673;52.808;17.856;2023-12-20T09:42:02;99366.03;;;5.32
48854;BMP280;34673;52.808;17.856;2023-12-20T09:44:30;99364.31;;;5.34
48854;BMP280;34673;52.808;17.856;2023-12-20T09:47:02;99366.88;;;5.36
48854;BMP280;34673;52.808;17.856;2023-12-20T09:49:30;99359.16;;;5.37
48854;BMP280;34673;52.808;17.856;2023-12-20T09:52:00;99345.50;;;5.38
48854;BMP280;34673;52.808;17.856;2023-12-20T09:54:28;99360.03;;;5.41
48854;BMP280;34673;52.808;17.856;2023-12-20T09:56:57;99347.22;;;5.36
48854;BMP280;34673;52.808;17.856;2023-12-20T09:59:24;99346.38;;;5.36
48854;BMP280;34673;52.808;17.856;2023-12-20T10:01:55;99336.09;;;5.36
48854;BMP280;34673;52.808;17.856;2023-12-20T10:04:24;99303.59;;;5.34
48854;BMP280;34673;52.808;17.856;2023-12-20T10:06:56;99332.59;;;5.55
48854;BMP280;34673;52.808;17.856;2023-12-20T10:09:24;99318.94;;;5.53
48854;BMP280;34673;52.808;17.856;2023-12-20T10:11:54;99324.06;;;5.53
48854;BMP280;34673;52.808;17.856;2023-12-20T10:14:22;99324.06;;;5.50
48854;BMP280;34673;52.808;17.856;2023-12-20T10:16:50;99325.78;;;5.51
48854;BMP280;34673;52.808;17.856;2023-12-20T10:19:17;99313.81;;;5.50
48854;BMP280;34673;52.808;17.856;2023-12-20T10:21:45;99318.94;;;5.50
48854;BMP280;34673;52.808;17.856;2023-12-20T10:24:18;99318.94;;;5.50
48854;BMP280;34673;52.808;17.856;2023-12-20T10:26:46;99325.78;;;5.54
48854;BMP280;34673;52.808;17.856;2023-12-20T10:29:13;99306.09;;;5.58
48854;BMP280;34673;52.808;17.856;2023-12-20T10:31:40;99293.22;;;5.65
48854;BMP280;34673;52.808;17.856;2023-12-20T10:34:09;99291.53;;;5.67
48854;BMP280;34673;52.808;17.856;2023-12-20T10:36:37;99295.75;;;5.73
48854;BMP280;34673;52.808;17.856;2023-12-20T10:39:05;99287.22;;;5.68
48854;BMP280;34673;52.808;17.856;2023-12-20T10:41:35;99288.94;;;5.70
48854;BMP280;34673;52.808;17.856;2023-12-20T10:44:08;99288.91;;;5.72
48854;BMP280;34673;52.808;17.856;2023-12-20T10:46:39;99277.84;;;5.65
48854;BMP280;34673;52.808;17.856;2023-12-20T10:49:08;99286.34;;;5.73
48854;BMP280;34673;52.808;17.856;2023-12-20T10:51:36;99284.63;;;5.74
48854;BMP280;34673;52.808;17.856;2023-12-20T10:54:04;99282.91;;;5.74
48854;BMP280;34673;52.808;17.856;2023-12-20T10:56:32;99264.09;;;5.72
48854;BMP280;34673;52.808;17.856;2023-12-20T10:59:03;99269.22;;;5.72
48854;BMP280;34673;52.808;17.856;2023-12-20T11:01:33;99269.22;;;5.78
48854;BMP280;34673;52.808;17.856;2023-12-20T11:04:05;99270.94;;;5.76
48854;BMP280;34673;52.808;17.856;2023-12-20T11:09:19;99255.56;;;5.73
48854;BMP280;34673;52.808;17.856;2023-12-20T11:12:20;99261.53;;;5.74
48854;BMP280;34673;52.808;17.856;2023-12-20T11:14:54;99257.28;;;5.71
48854;BMP280;34673;52.808;17.856;2023-12-20T11:17:24;99250.44;;;5.70
48854;BMP280;34673;52.808;17.856;2023-12-20T11:22:25;99226.56;;;5.62
48854;BMP280;34673;52.808;17.856;2023-12-20T11:24:53;99235.94;;;5.65
48854;BMP280;34673;52.808;17.856;2023-12-20T11:27:21;99226.56;;;5.62
48854;BMP280;34673;52.808;17.856;2023-12-20T11:29:52;99226.53;;;5.65
48854;BMP280;34673;52.808;17.856;2023-12-20T11:35:00;99214.56;;;5.67
48854;BMP280;34673;52.808;17.856;2023-12-20T11:37:31;99203.44;;;5.65
48854;BMP280;34673;52.808;17.856;2023-12-20T11:40:06;99199.16;;;5.67
48854;BMP280;34673;52.808;17.856;2023-12-20T11:42:41;99200.81;;;5.71
48854;BMP280;34673;52.808;17.856;2023-12-20T11:45:10;99186.28;;;5.72
48854;BMP280;34673;52.808;17.856;2023-12-20T11:47:38;99192.25;;;5.75
48854;BMP280;34673;52.808;17.856;2023-12-20T11:50:06;99183.72;;;5.73
48854;BMP280;34673;52.808;17.856;2023-12-20T11:52:33;99172.63;;;5.67
48854;BMP280;34673;52.808;17.856;2023-12-20T11:55:00;99178.59;;;5.70
48854;BMP280;34673;52.808;17.856;2023-12-20T11:57:28;99175.22;;;5.65
48854;BMP280;34673;52.808;17.856;2023-12-20T11:59:55;99173.50;;;5.64
48854;BMP280;34673;52.808;17.856;2023-12-20T12:02:23;99167.50;;;5.67
48854;BMP280;34673;52.808;17.856;2023-12-20T12:04:50;99154.72;;;5.62
48854;BMP280;34673;52.808;17.856;2023-12-20T12:07:18;99163.28;;;5.60
48854;BMP280;34673;52.808;17.856;2023-12-20T12:09:46;99163.28;;;5.58
48854;BMP280;34673;52.808;17.856;2023-12-20T12:12:13;99159.88;;;5.59
48854;BMP280;34673;52.808;17.856;2023-12-20T12:14:41;99142.81;;;5.52
48854;BMP280;34673;52.808;17.856;2023-12-20T12:17:12;99153.06;;;5.57
48854;BMP280;34673;52.808;17.856;2023-12-20T12:19:41;99151.31;;;5.59
48854;BMP280;34673;52.808;17.856;2023-12-20T12:22:15;99141.06;;;5.57
48854;BMP280;34673;52.808;17.856;2023-12-20T12:24:44;99139.34;;;5.56
48854;BMP280;34673;52.808;17.856;2023-12-20T12:27:15;99128.28;;;5.48
48854;BMP280;34673;52.808;17.856;2023-12-20T12:30:00;99136.00;;;5.48
48854;BMP280;34673;52.808;17.856;2023-12-20T12:32:29;99113.84;;;5.41
48854;BMP280;34673;52.808;17.856;2023-12-20T12:34:56;99117.28;;;5.37
48854;BMP280;34673;52.808;17.856;2023-12-20T12:37:24;99117.22;;;5.43
48854;BMP280;34673;52.808;17.856;2023-12-20T12:39:53;99110.44;;;5.39
48854;BMP280;34673;52.808;17.856;2023-12-20T12:42:21;99115.56;;;5.36
48854;BMP280;34673;52.808;17.856;2023-12-20T12:44:52;99098.50;;;5.31
48854;BMP280;34673;52.808;17.856;2023-12-20T12:47:19;99107.91;;;5.31
48854;BMP280;34673;52.808;17.856;2023-12-20T12:49:46;99104.50;;;5.32
48854;BMP280;34673;52.808;17.856;2023-12-20T12:52:16;99081.50;;;5.18
48854;BMP280;34673;52.808;17.856;2023-12-20T12:54:44;99095.09;;;5.32
48854;BMP280;34673;52.808;17.856;2023-12-20T12:57:13;99107.91;;;5.32
48854;BMP280;34673;52.808;17.856;2023-12-20T12:59:41;99100.22;;;5.32
48854;BMP280;34673;52.808;17.856;2023-12-20T13:02:08;99092.56;;;5.28
48854;BMP280;34673;52.808;17.856;2023-12-20T13:04:35;99091.69;;;5.30
48854;BMP280;34673;52.808;17.856;2023-12-20T13:07:03;99091.69;;;5.30
48854;BMP280;34673;52.808;17.856;2023-12-20T13:09:31;99089.97;;;5.32
48854;BMP280;34673;52.808;17.856;2023-12-20T13:11:58;99089.94;;;5.36
48854;BMP280;34673;52.808;17.856;2023-12-20T13:14:26;99091.66;;;5.33
48854;BMP280;34673;52.808;17.856;2023-12-20T13:16:53;99095.91;;;5.34
48854;BMP280;34673;52.808;17.856;2023-12-20T13:19:20;99083.97;;;5.35
48854;BMP280;34673;52.808;17.856;2023-12-20T13:21:48;99076.28;;;5.30
48854;BMP280;34673;52.808;17.856;2023-12-20T13:24:15;99083.13;;;5.31
48854;BMP280;34673;52.808;17.856;2023-12-20T13:26:42;99070.34;;;5.27
48854;BMP280;34673;52.808;17.856;2023-12-20T13:29:10;99084.84;;;5.32
48854;BMP280;34673;52.808;17.856;2023-12-20T13:31:37;99077.97;;;5.31
48854;BMP280;34673;52.808;17.856;2023-12-20T13:34:06;99066.91;;;5.26
48854;BMP280;34673;52.808;17.856;2023-12-20T13:36:34;99058.38;;;5.26
48854;BMP280;34673;52.808;17.856;2023-12-20T13:39:03;99075.41;;;5.34
48854;BMP280;34673;52.808;17.856;2023-12-20T13:41:32;99070.31;;;5.28
48854;BMP280;34673;52.808;17.856;2023-12-20T13:43:59;99069.44;;;5.32
48854;BMP280;34673;52.808;17.856;2023-12-20T13:46:26;99072.84;;;5.34
48854;BMP280;34673;52.808;17.856;2023-12-20T13:48:54;99066.00;;;5.33
48854;BMP280;34673;52.808;17.856;2023-12-20T13:51:22;99055.81;;;5.27
48854;BMP280;34673;52.808;17.856;2023-12-20T13:53:49;99066.00;;;5.33
48854;BMP280;34673;52.808;17.856;2023-12-20T13:56:16;99066.88;;;5.32
48854;BMP280;34673;52.808;17.856;2023-12-20T13:58:43;99056.63;;;5.32
48854;BMP280;34673;52.808;17.856;2023-12-20T14:01:13;99047.22;;;5.31
48854;BMP280;34673;52.808;17.856;2023-12-20T14:03:40;99037.88;;;5.27
48854;BMP280;34673;52.808;17.856;2023-12-20T14:06:08;99029.31;;;5.27
48854;BMP280;34673;52.808;17.856;2023-12-20T14:08:35;99045.53;;;5.30
48854;BMP280;34673;52.808;17.856;2023-12-20T14:11:03;99052.34;;;5.31
48854;BMP280;34673;52.808;17.856;2023-12-20T14:13:30;99050.63;;;5.33
48854;BMP280;34673;52.808;17.856;2023-12-20T14:15:58;99054.06;;;5.32
48854;BMP280;34673;52.808;17.856;2023-12-20T14:18:27;99042.09;;;5.31
48854;BMP280;34673;52.808;17.856;2023-12-20T14:20:54;99045.47;;;5.37